ADDS METAR Data INFO
IDs: Format: Raw Decoded Include TAF

Data at: 2024 UTC 16 Dec 2017

KCRX 162015Z AUTO 16009KT 10SM CLR 12/M01 A3017 RMK AO2
KCRX 161955Z AUTO 19011KT 10SM CLR 11/M01 A3019 RMK AO2
KCRX 161935Z AUTO 16010KT 10SM CLR 12/M01 A3019 RMK AO2
KCRX 161915Z AUTO 19012KT 10SM CLR 12/M01 A3019 RMK AO2
KCRX 161855Z AUTO 18007G13KT 10SM CLR 11/M01 A3020 RMK AO2
KCRX 161835Z AUTO 17013KT 10SM CLR 11/M01 A3021 RMK AO2
KCRX 161815Z AUTO 16008G13KT 10SM CLR 11/M01 A3023 RMK AO2
KCRX 161755Z AUTO 18009KT 10SM CLR 10/M01 A3024 RMK AO2
KCRX 161735Z AUTO 16008KT 10SM CLR 10/M01 A3024 RMK AO2
KCRX 161715Z AUTO 17007G13KT 10SM CLR 10/M01 A3026 RMK AO2
KCRX 161655Z AUTO 19007G13KT 10SM CLR 09/M01 A3027 RMK AO2
KCRX 161635Z AUTO 20006KT 10SM CLR 08/M02 A3027 RMK AO2
KCRX 161615Z AUTO 22006KT 10SM CLR 07/M02 A3028 RMK AO2
KCRX 161555Z AUTO VRB06G12KT 10SM CLR 07/M02 A3028 RMK AO2
KCRX 161535Z AUTO 21007KT 10SM CLR 06/M02 A3029 RMK AO2
KCRX 161515Z AUTO 20005KT 10SM CLR 05/M02 A3028 RMK AO2
KCRX 161455Z AUTO 19006KT 10SM CLR 04/M02 A3028 RMK AO2
KCRX 161435Z AUTO 18006KT 10SM CLR 03/M02 A3027 RMK AO2
KCRX 161415Z AUTO 16004KT 10SM CLR 01/M02 A3027 RMK AO2
KCRX 161355Z AUTO 16003KT 10SM CLR M00/M03 A3026 RMK AO2
KCRX 161335Z AUTO 00000KT 10SM CLR M02/M04 A3026 RMK AO2
KCRX 161315Z AUTO 14003KT 10SM CLR M03/M05 A3026 RMK AO2
KCRX 161255Z AUTO 00000KT 10SM CLR M03/M05 A3025 RMK AO2
KCRX 161235Z AUTO 00000KT 10SM CLR M03/M05 A3025 RMK AO2
KCRX 161215Z AUTO 00000KT 10SM CLR M03/M05 A3024 RMK AO2
KCRX 161155Z AUTO 13003KT 10SM CLR M03/M05 A3024 RMK AO2
KCRX 161135Z AUTO 00000KT 10SM CLR M03/M05 A3023 RMK AO2
KCRX 161115Z AUTO 00000KT 10SM CLR M03/M05 A3022 RMK AO2
KCRX 161055Z AUTO 00000KT 10SM CLR M03/M05 A3023 RMK AO2
KCRX 161035Z AUTO 00000KT 10SM CLR M03/M05 A3023 RMK AO2
KCRX 161015Z AUTO 00000KT 10SM CLR M03/M05 A3023 RMK AO2
KCRX 160955Z AUTO 00000KT 10SM CLR M03/M05 A3023 RMK AO2
KCRX 160935Z AUTO 00000KT 10SM CLR M03/M05 A3023 RMK AO2
KCRX 160915Z AUTO 00000KT 10SM CLR M03/M04 A3024 RMK AO2
KCRX 160855Z AUTO 00000KT 10SM CLR M03/M05 A3024 RMK AO2
KCRX 160835Z AUTO 00000KT 10SM CLR M03/M04 A3024 RMK AO2
KCRX 160815Z AUTO 00000KT 10SM CLR M02/M04 A3024 RMK AO2
KCRX 160755Z AUTO 00000KT 10SM CLR M03/M05 A3024 RMK AO2
KCRX 160735Z AUTO 00000KT 10SM CLR M03/M05 A3024 RMK AO2
KCRX 160715Z AUTO 14003KT 10SM CLR M03/M05 A3023 RMK AO2
KCRX 160655Z AUTO 13004KT 10SM CLR M03/M05 A3023 RMK AO2
KCRX 160635Z AUTO 00000KT 10SM CLR M03/M05 A3023 RMK AO2
KCRX 160615Z AUTO 14003KT 10SM CLR M02/M04 A3023 RMK AO2
KCRX 160555Z AUTO 15003KT 10SM CLR M02/M04 A3023 RMK AO2
KCRX 160535Z AUTO 00000KT 10SM CLR M02/M05 A3023 RMK AO2
KCRX 160515Z AUTO 00000KT 10SM CLR M02/M04 A3023 RMK AO2
KCRX 160455Z AUTO 00000KT 10SM CLR M02/M04 A3024 RMK AO2
KCRX 160435Z AUTO 15003KT 10SM CLR M02/M04 A3024 RMK AO2
KCRX 160415Z AUTO 14003KT 10SM CLR M02/M04 A3023 RMK AO2
KCRX 160355Z AUTO 00000KT 10SM CLR M03/M05 A3022 RMK AO2
KCRX 160335Z AUTO 16004KT 10SM CLR M02/M04 A3022 RMK AO2
KCRX 160315Z AUTO 14003KT 10SM CLR M02/M05 A3022 RMK AO2
KCRX 160255Z AUTO 16003KT 10SM CLR M01/M04 A3022 RMK AO2
KCRX 160235Z AUTO 00000KT 10SM CLR M01/M04 A3022 RMK AO2
KCRX 160215Z AUTO 00000KT 10SM CLR M01/M04 A3022 RMK AO2
KCRX 160155Z AUTO 00000KT 10SM CLR M01/M03 A3022 RMK AO2
KCRX 160135Z AUTO 00000KT 10SM CLR M01/M04 A3021 RMK AO2
KCRX 160115Z AUTO 00000KT 10SM CLR M00/M04 A3021 RMK AO2
KCRX 160055Z AUTO 00000KT 10SM CLR 00/M04 A3020 RMK AO2
KCRX 160035Z AUTO 00000KT 10SM CLR 00/M04 A3019 RMK AO2
KCRX 160015Z AUTO 22003KT 10SM CLR 02/M04 A3018 RMK AO2
KCRX 152355Z AUTO 21006KT 10SM CLR 04/M04 A3018 RMK AO2
KCRX 152335Z AUTO 22004KT 10SM CLR 04/M04 A3018 RMK AO2
KCRX 152315Z AUTO 23005KT 10SM CLR 05/M04 A3019 RMK AO2
KCRX 152255Z AUTO 23006KT 10SM CLR 05/M04 A3019 RMK AO2
KCRX 152235Z AUTO 00000KT 10SM CLR 06/M04 A3018 RMK AO2
KCRX 152215Z AUTO 22003KT 10SM CLR 07/M04 A3017 RMK AO2
KCRX 152155Z AUTO 00000KT 10SM CLR 07/M05 A3017 RMK AO2
KCRX 152135Z AUTO 00000KT 10SM CLR 07/M05 A3018 RMK AO2
KCRX 152115Z AUTO 23007KT 10SM CLR 07/M05 A3018 RMK AO2
KCRX 152055Z AUTO 31005G10KT 10SM CLR 07/M05 A3018 RMK AO2
KCRX 152035Z AUTO 31006KT 10SM CLR 07/M05 A3018 RMK AO2
KCRX 152015Z AUTO 30004KT 10SM CLR 07/M05 A3018 RMK AO2
KCRX 151955Z AUTO 00000KT 10SM CLR 07/M05 A3017 RMK AO2
KCRX 151935Z AUTO 00000KT 10SM CLR 07/M05 A3017 RMK AO2
KCRX 151915Z AUTO 28003G10KT 10SM CLR 06/M05 A3018 RMK AO2
KCRX 151855Z AUTO 27006KT 10SM CLR 06/M05 A3019 RMK AO2
KCRX 151835Z AUTO 28006KT 10SM CLR 05/M05 A3019 RMK AO2
KCRX 151815Z AUTO 00000KT 10SM CLR 04/M05 A3020 RMK AO2
KCRX 151755Z AUTO VRB06G12KT 10SM CLR 05/M05 A3020 RMK AO2
KCRX 151735Z AUTO 31009KT 10SM CLR 04/M05 A3022 RMK AO2
KCRX 151715Z AUTO 33010G16KT 10SM CLR 04/M05 A3023 RMK AO2
KCRX 151655Z AUTO 35009G14KT 10SM CLR 05/M05 A3024 RMK AO2
KCRX 151635Z AUTO 36008KT 10SM CLR 04/M04 A3023 RMK AO2
KCRX 151615Z AUTO 33009KT 10SM CLR 03/M04 A3023 RMK AO2
KCRX 151555Z AUTO 33006KT 10SM CLR 02/M03 A3024 RMK AO2
KCRX 151535Z AUTO 31005KT 10SM CLR 01/M03 A3024 RMK AO2
KCRX 151515Z AUTO 31003KT 10SM FEW034 01/M03 A3023 RMK AO2
KCRX 151455Z AUTO VRB03KT 9SM OVC034 M00/M03 A3022 RMK AO2
KCRX 151435Z AUTO 00000KT 8SM OVC036 M01/M03 A3021 RMK AO2
KCRX 151415Z AUTO 00000KT 10SM OVC038 M02/M03 A3020 RMK AO2
KCRX 151355Z AUTO 00000KT 9SM BKN039 M02/M03 A3020 RMK AO2
KCRX 151335Z AUTO 00000KT 9SM OVC039 M02/M04 A3019 RMK AO2
KCRX 151315Z AUTO 00000KT 10SM OVC039 M03/M04 A3018 RMK AO2
KCRX 151255Z AUTO 00000KT 10SM OVC039 M03/M04 A3018 RMK AO2
KCRX 151235Z AUTO 00000KT 10SM OVC039 M03/M04 A3017 RMK AO2
KCRX 151215Z AUTO 00000KT 9SM OVC040 M03/M05 A3017 RMK AO2
KCRX 151155Z AUTO 00000KT 10SM BKN040 M04/M05 A3016 RMK AO2
KCRX 151135Z AUTO 00000KT 10SM FEW041 M04/M05 A3015 RMK AO2
KCRX 151115Z AUTO 00000KT 10SM BKN040 M04/M05 A3014 RMK AO2
KCRX 151055Z AUTO 00000KT 10SM BKN040 M04/M05 A3013 RMK AO2
KCRX 151035Z AUTO 00000KT 10SM FEW040 M05/M06 A3013 RMK AO2
KCRX 151015Z AUTO 00000KT 9SM -UP CLR M05/M06 A3013 RMK AO2
KCRX 150955Z AUTO 00000KT 10SM CLR M04/M05 A3012 RMK AO2
KCRX 150935Z AUTO 00000KT 10SM CLR M04/M05 A3012 RMK AO2
KCRX 150915Z AUTO 00000KT 7SM CLR M04/M05 A3011 RMK AO2
KCRX 150855Z AUTO 00000KT 9SM CLR M04/M05 A3011 RMK AO2
KCRX 150835Z AUTO 00000KT 10SM CLR M04/M05 A3011 RMK AO2